createdAt,value
2023-01-26T00:01:12.835Z,24.33
2023-01-26T00:03:40.967Z,24.73
2023-01-26T00:06:10.536Z,27.17
2023-01-26T00:08:38.395Z,24.45
2023-01-26T00:11:08.702Z,25.90
2023-01-26T00:13:36.932Z,22.30
2023-01-26T00:16:05.473Z,21.23
2023-01-26T00:18:33.283Z,22.17
2023-01-26T00:21:02.540Z,21.88
2023-01-26T00:23:31.730Z,22.58
2023-01-26T00:25:59.649Z,22.80
2023-01-26T00:28:29.369Z,22.20
2023-01-26T00:31:03.536Z,23.05
2023-01-26T00:33:31.255Z,24.63
2023-01-26T00:35:59.133Z,22.40
2023-01-26T00:38:26.703Z,24.10
2023-01-26T00:40:54.530Z,20.02
2023-01-26T00:43:22.433Z,25.63
2023-01-26T00:45:51.336Z,24.23
2023-01-26T00:48:18.974Z,22.48
2023-01-26T00:50:46.610Z,22.17
2023-01-26T00:53:14.175Z,22.23
2023-01-26T00:55:41.763Z,21.47
2023-01-26T00:58:10.263Z,21.75
2023-01-26T01:00:39.602Z,22.02
2023-01-26T01:03:08.811Z,21.55
2023-01-26T01:05:36.531Z,21.35
2023-01-26T01:08:04.207Z,22.40
2023-01-26T01:10:31.772Z,21.42
2023-01-26T01:12:59.391Z,21.33
2023-01-26T01:15:26.992Z,21.23
2023-01-26T01:17:54.570Z,21.98
2023-01-26T01:20:23.490Z,21.52
2023-01-26T01:22:52.352Z,22.27
2023-01-26T01:25:20.005Z,22.05
2023-01-26T01:27:47.543Z,20.10
2023-01-26T01:30:15.286Z,19.70
2023-01-26T01:32:43.069Z,22.55
2023-01-26T01:35:10.720Z,21.52
2023-01-26T01:37:39.635Z,22.60
2023-01-26T01:40:12.107Z,22.85
2023-01-26T01:42:39.870Z,21.65
2023-01-26T01:45:37.172Z,23.15
2023-01-26T01:48:08.055Z,21.27
2023-01-26T01:50:40.536Z,24.98
2023-01-26T01:53:14.445Z,21.65
2023-01-26T01:55:42.784Z,22.60
2023-01-26T01:58:10.666Z,23.63
2023-01-26T02:00:38.333Z,24.52
2023-01-26T02:03:14.840Z,22.65
2023-01-26T02:05:49.905Z,23.52
2023-01-26T02:08:20.530Z,26.98
2023-01-26T02:10:51.149Z,26.65
2023-01-26T02:13:20.509Z,24.50
2023-01-26T02:15:48.389Z,25.33
2023-01-26T02:18:16.391Z,24.58
2023-01-26T02:20:47.686Z,26.90
2023-01-26T02:23:29.458Z,26.27
2023-01-26T02:26:11.332Z,24.50
2023-01-26T02:28:40.237Z,24.65
2023-01-26T02:31:08.892Z,25.13
2023-01-26T02:33:36.856Z,24.30
2023-01-26T02:36:05.552Z,24.48
2023-01-26T02:38:40.153Z,24.05
2023-01-26T02:41:12.256Z,22.30
2023-01-26T02:43:39.872Z,24.15
2023-01-26T02:46:07.485Z,21.08
2023-01-26T02:48:52.843Z,22.00
2023-01-26T02:51:20.396Z,24.95
2023-01-26T02:53:47.930Z,23.13
2023-01-26T02:56:15.863Z,23.90
2023-01-26T02:58:43.443Z,22.23
2023-01-26T03:01:11.427Z,24.02
2023-01-26T03:03:45.636Z,24.20
2023-01-26T03:06:15.173Z,23.27
2023-01-26T03:08:42.782Z,23.58
2023-01-26T03:11:10.525Z,23.83
2023-01-26T03:13:39.419Z,23.05
2023-01-26T03:16:08.917Z,21.37
2023-01-26T03:18:55.063Z,24.15
2023-01-26T03:21:42.343Z,21.13
2023-01-26T03:24:30.727Z,18.52
2023-01-26T03:27:16.036Z,19.88
2023-01-26T03:29:45.688Z,21.55
2023-01-26T03:32:13.502Z,19.88
2023-01-26T03:34:41.097Z,21.67
2023-01-26T03:37:08.751Z,19.58
2023-01-26T03:39:54.069Z,19.08
2023-01-26T03:42:39.109Z,22.45
2023-01-26T03:45:26.536Z,17.80
2023-01-26T03:48:11.885Z,19.90
2023-01-26T03:50:57.301Z,18.08
2023-01-26T03:53:43.360Z,18.58
2023-01-26T03:56:18.062Z,17.55
2023-01-26T03:58:45.942Z,16.33
2023-01-26T04:01:20.034Z,15.02
2023-01-26T04:04:07.306Z,16.58
2023-01-26T04:06:53.626Z,13.07
2023-01-26T04:09:22.340Z,15.48
2023-01-26T04:11:50.189Z,16.02
2023-01-26T04:14:49.431Z,15.05
2023-01-26T04:17:37.955Z,16.85
2023-01-26T04:20:24.935Z,16.42
2023-01-26T04:22:52.659Z,15.43
2023-01-26T04:25:22.457Z,17.27
2023-01-26T04:27:50.230Z,16.70
2023-01-26T04:30:18.875Z,16.20
2023-01-26T04:32:47.894Z,16.15
2023-01-26T04:35:15.564Z,14.75
2023-01-26T04:37:43.688Z,15.50
2023-01-26T04:40:12.652Z,14.68
2023-01-26T04:42:40.446Z,13.90
2023-01-26T04:45:09.112Z,13.98
2023-01-26T04:47:36.669Z,14.73
2023-01-26T04:50:06.559Z,12.40
2023-01-26T04:52:34.187Z,12.55
2023-01-26T04:55:01.806Z,13.85
2023-01-26T04:57:29.413Z,13.55
2023-01-26T04:59:56.948Z,13.45
2023-01-26T05:02:24.498Z,14.43
2023-01-26T05:04:52.188Z,14.70
2023-01-26T05:07:21.330Z,15.10
2023-01-26T05:09:48.933Z,14.77
2023-01-26T05:12:34.568Z,13.75
2023-01-26T05:15:02.236Z,14.93
2023-01-26T05:17:29.818Z,12.38
2023-01-26T05:19:57.415Z,12.32
2023-01-26T05:22:26.356Z,12.23
2023-01-26T05:24:53.934Z,13.98
2023-01-26T05:27:24.157Z,12.85
2023-01-26T05:29:55.095Z,11.77
2023-01-26T05:32:22.960Z,12.25
2023-01-26T05:34:50.484Z,17.40
2023-01-26T05:37:18.069Z,14.05
2023-01-26T05:39:47.139Z,12.10
2023-01-26T05:42:15.295Z,12.57
2023-01-26T05:44:42.846Z,11.93
2023-01-26T05:47:10.426Z,12.23
2023-01-26T05:49:38.651Z,13.00
2023-01-26T05:52:09.578Z,11.20
2023-01-26T05:54:37.274Z,11.27
2023-01-26T05:57:06.296Z,21.27
2023-01-26T05:59:33.861Z,18.02
2023-01-26T06:02:02.113Z,11.10
2023-01-26T06:04:30.318Z,10.60
2023-01-26T06:06:59.703Z,9.98
2023-01-26T06:09:27.675Z,12.20
2023-01-26T06:11:55.450Z,11.15
2023-01-26T06:14:24.620Z,11.35
2023-01-26T06:16:54.131Z,10.73
2023-01-26T06:19:21.763Z,9.57
2023-01-26T06:21:49.331Z,9.27
2023-01-26T06:24:16.902Z,8.93
2023-01-26T06:26:44.636Z,9.23
2023-01-26T06:29:12.465Z,9.60
2023-01-26T06:31:41.517Z,10.57
2023-01-26T06:34:10.814Z,10.87
2023-01-26T06:36:38.485Z,12.43
2023-01-26T06:39:06.170Z,14.20
2023-01-26T06:41:33.869Z,17.77
2023-01-26T06:44:01.481Z,17.23
2023-01-26T06:46:29.061Z,19.00
2023-01-26T06:48:58.013Z,23.10
2023-01-26T06:51:45.177Z,22.52
2023-01-26T06:54:13.915Z,19.17
2023-01-26T06:56:41.633Z,22.07
2023-01-26T06:59:10.627Z,17.55
2023-01-26T07:01:42.324Z,15.95
2023-01-26T07:04:11.531Z,15.70
2023-01-26T07:06:39.069Z,15.30
2023-01-26T07:09:06.949Z,15.27
2023-01-26T07:11:34.599Z,15.45
2023-01-26T07:14:02.170Z,15.98
2023-01-26T07:16:31.441Z,14.75
2023-01-26T07:19:00.967Z,14.18
2023-01-26T07:21:29.871Z,14.50
2023-01-26T07:23:57.820Z,13.95
2023-01-26T07:26:25.445Z,15.65
2023-01-26T07:28:53.108Z,13.98
2023-01-26T07:31:20.841Z,16.50
2023-01-26T07:33:48.448Z,14.43
2023-01-26T07:36:16.077Z,14.98
2023-01-26T07:38:45.042Z,14.70
2023-01-26T07:41:14.364Z,11.73
2023-01-26T07:43:42.458Z,12.07
2023-01-26T07:46:11.865Z,12.73
2023-01-26T07:48:40.782Z,13.65
2023-01-26T07:51:09.143Z,12.07
2023-01-26T07:53:39.456Z,10.02
2023-01-26T07:56:10.462Z,10.50
2023-01-26T07:58:38.414Z,9.90
2023-01-26T08:01:11.102Z,9.60
2023-01-26T08:03:39.526Z,10.98
2023-01-26T08:06:11.511Z,10.30
2023-01-26T08:08:40.845Z,9.75
2023-01-26T08:11:10.631Z,9.65
2023-01-26T08:13:38.740Z,9.32
2023-01-26T08:16:09.491Z,8.48
2023-01-26T08:18:37.200Z,9.00
2023-01-26T08:21:05.302Z,8.87
2023-01-26T08:23:32.989Z,8.93
2023-01-26T08:26:02.437Z,10.13
2023-01-26T08:28:31.610Z,8.73
2023-01-26T08:31:05.350Z,8.30
2023-01-26T08:33:33.668Z,7.13
2023-01-26T08:36:05.887Z,7.88
2023-01-26T08:38:34.632Z,6.25
2023-01-26T08:41:02.986Z,4.90
2023-01-26T08:43:32.113Z,4.82
2023-01-26T08:46:00.166Z,4.97
2023-01-26T08:48:28.367Z,6.30
2023-01-26T08:50:56.583Z,4.88
2023-01-26T08:53:24.959Z,4.22
2023-01-26T08:55:53.059Z,4.70
2023-01-26T08:58:21.413Z,5.68
2023-01-26T09:00:50.356Z,5.32
2023-01-26T09:03:18.039Z,4.90
2023-01-26T09:05:45.774Z,4.80
2023-01-26T09:08:13.377Z,5.78
2023-01-26T09:10:41.246Z,5.70
2023-01-26T09:13:08.797Z,5.47
2023-01-26T09:15:38.837Z,5.20
2023-01-26T09:18:07.805Z,5.10
2023-01-26T09:20:35.380Z,5.43
2023-01-26T09:23:03.019Z,5.72
2023-01-26T09:25:30.945Z,5.65
2023-01-26T09:27:58.716Z,5.82
2023-01-26T09:30:26.543Z,7.45
2023-01-26T09:32:58.601Z,9.68
2023-01-26T09:35:27.615Z,11.43
2023-01-26T09:37:55.230Z,10.00
2023-01-26T09:40:32.099Z,7.72
2023-01-26T09:43:17.096Z,7.45
2023-01-26T09:45:54.854Z,8.27
2023-01-26T09:48:32.681Z,8.50
2023-01-26T09:51:06.609Z,8.05
2023-01-26T09:53:47.565Z,9.13
2023-01-26T09:56:19.502Z,9.25
2023-01-26T09:58:51.607Z,10.00
2023-01-26T10:01:25.457Z,9.40
2023-01-26T10:04:05.436Z,11.65
2023-01-26T10:06:35.260Z,10.25
2023-01-26T10:09:15.597Z,11.82
2023-01-26T10:11:48.196Z,12.27
2023-01-26T10:14:22.474Z,10.57
2023-01-26T10:16:52.898Z,11.93
2023-01-26T10:19:32.406Z,13.45
2023-01-26T10:22:06.941Z,13.35
2023-01-26T10:24:34.882Z,13.52
2023-01-26T10:27:02.466Z,12.98
2023-01-26T10:29:30.090Z,12.35
2023-01-26T10:31:57.680Z,13.02
2023-01-26T10:34:27.545Z,13.70
2023-01-26T10:37:03.175Z,15.93
2023-01-26T10:39:30.834Z,14.05
2023-01-26T10:41:59.805Z,13.80
2023-01-26T10:44:33.933Z,12.80
2023-01-26T10:47:14.493Z,14.90
2023-01-26T10:49:42.486Z,14.90
2023-01-26T10:52:18.314Z,14.43
2023-01-26T10:54:46.397Z,13.30
2023-01-26T10:57:21.756Z,13.20
2023-01-26T10:59:53.780Z,13.48
2023-01-26T11:02:25.279Z,13.02
2023-01-26T11:05:21.396Z,13.93
2023-01-26T11:07:54.146Z,13.98
2023-01-26T11:10:28.611Z,14.80
2023-01-26T11:13:18.297Z,14.68
2023-01-26T11:15:48.701Z,14.25
2023-01-26T11:18:30.717Z,14.38
2023-01-26T11:21:01.942Z,14.02
2023-01-26T11:23:41.551Z,15.63
2023-01-26T11:26:39.477Z,15.45
2023-01-26T11:29:33.806Z,16.85
2023-01-26T11:32:14.578Z,16.60
2023-01-26T11:34:53.540Z,16.20
2023-01-26T11:37:44.381Z,18.57
2023-01-26T11:40:35.065Z,17.90
2023-01-26T11:43:20.676Z,17.97
2023-01-26T11:46:05.052Z,17.67
2023-01-26T11:48:40.761Z,16.75
2023-01-26T11:51:19.427Z,17.48
2023-01-26T11:54:07.981Z,18.15
2023-01-26T11:56:45.185Z,17.48
2023-01-26T11:59:18.452Z,29.42
2023-01-26T12:01:52.690Z,20.25
2023-01-26T12:04:22.974Z,20.38
2023-01-26T12:06:56.206Z,19.13
2023-01-26T12:09:33.178Z,18.48
2023-01-26T12:12:07.589Z,24.05
2023-01-26T12:14:40.987Z,24.73
2023-01-26T12:17:28.302Z,25.58
2023-01-26T12:20:04.792Z,28.27
2023-01-26T12:22:36.320Z,19.95
2023-01-26T12:25:19.869Z,19.10
2023-01-26T12:27:56.038Z,18.30
2023-01-26T12:30:32.593Z,18.80
2023-01-26T12:33:00.515Z,18.10
2023-01-26T12:35:50.045Z,18.30
2023-01-26T12:38:24.030Z,19.70
2023-01-26T12:41:03.087Z,20.30
2023-01-26T12:43:46.834Z,21.13
2023-01-26T12:46:15.458Z,20.48
2023-01-26T12:48:47.837Z,19.50
2023-01-26T12:51:23.698Z,20.05
2023-01-26T12:53:58.420Z,20.13
2023-01-26T12:56:32.575Z,21.88
2023-01-26T12:59:08.472Z,21.48
2023-01-26T13:01:40.621Z,22.63
2023-01-26T13:04:11.625Z,22.92
2023-01-26T13:06:39.245Z,23.60
2023-01-26T13:09:21.510Z,22.88
2023-01-26T13:11:52.230Z,23.30
2023-01-26T13:14:37.637Z,24.08
2023-01-26T13:17:48.792Z,22.98
2023-01-26T13:20:24.619Z,24.70
2023-01-26T13:22:52.740Z,22.17
2023-01-26T13:25:27.695Z,24.73
2023-01-26T13:27:57.838Z,23.27
2023-01-26T13:30:36.094Z,23.98
2023-01-26T13:33:11.818Z,23.60
2023-01-26T13:35:40.603Z,23.15
2023-01-26T13:38:16.025Z,23.67
2023-01-26T13:40:46.449Z,22.80
2023-01-26T13:43:27.018Z,22.90
2023-01-26T13:46:19.217Z,23.60
2023-01-26T13:48:49.611Z,22.88
2023-01-26T13:51:20.629Z,147.07
2023-01-26T13:53:54.599Z,25.13
2023-01-26T13:56:25.893Z,25.02
2023-01-26T13:58:54.159Z,24.92
2023-01-26T14:01:23.343Z,24.70
2023-01-26T14:04:03.612Z,32.22
2023-01-26T14:06:31.517Z,26.35
2023-01-26T14:08:59.686Z,26.40
2023-01-26T14:11:30.198Z,32.90
2023-01-26T14:14:00.580Z,32.75
2023-01-26T14:16:32.419Z,28.25
2023-01-26T14:19:07.793Z,27.38
2023-01-26T14:21:48.697Z,29.33
2023-01-26T14:24:18.724Z,26.63
2023-01-26T14:26:46.281Z,27.50
2023-01-26T14:29:21.273Z,28.73
2023-01-26T14:31:51.819Z,26.80
2023-01-26T14:34:26.326Z,26.27
2023-01-26T14:37:08.320Z,26.73
2023-01-26T14:39:36.212Z,26.30
2023-01-26T14:42:04.693Z,24.23
2023-01-26T14:44:32.486Z,27.73
2023-01-26T14:47:05.703Z,27.80
2023-01-26T14:49:43.303Z,28.90
2023-01-26T14:52:23.814Z,28.50
2023-01-26T14:54:53.109Z,30.70
2023-01-26T14:57:22.562Z,29.70
2023-01-26T14:59:52.993Z,28.92
2023-01-26T15:02:24.374Z,27.25
2023-01-26T15:04:56.200Z,29.42
2023-01-26T15:07:34.961Z,28.98
2023-01-26T15:10:03.792Z,30.88
2023-01-26T15:12:35.014Z,42.08
2023-01-26T15:15:03.261Z,30.67
2023-01-26T15:17:38.794Z,29.00
2023-01-26T15:20:33.144Z,59.47
2023-01-26T15:23:00.806Z,27.63
2023-01-26T15:25:30.032Z,22.80
2023-01-26T15:27:59.594Z,36.83
2023-01-26T15:30:29.332Z,22.33
2023-01-26T15:32:58.714Z,28.70
2023-01-26T15:35:28.067Z,18.48
2023-01-26T15:38:03.579Z,18.73
2023-01-26T15:40:31.631Z,17.75
2023-01-26T15:43:12.972Z,17.97
2023-01-26T15:45:43.349Z,18.35
2023-01-26T15:48:12.265Z,20.30
2023-01-26T15:50:39.835Z,20.85
2023-01-26T15:53:07.492Z,23.10
2023-01-26T15:55:35.300Z,23.23
2023-01-26T15:58:02.866Z,20.60
2023-01-26T16:00:30.445Z,21.63
2023-01-26T16:02:58.039Z,64.70
2023-01-26T16:05:28.196Z,31.77
2023-01-26T16:07:55.758Z,25.35
2023-01-26T16:10:23.317Z,24.48
2023-01-26T16:12:51.768Z,22.77
2023-01-26T16:15:29.384Z,23.42
2023-01-26T16:17:57.044Z,25.58
2023-01-26T16:20:24.780Z,22.77
2023-01-26T16:22:53.662Z,21.27
2023-01-26T16:25:25.841Z,23.23
2023-01-26T16:27:54.066Z,23.65
2023-01-26T16:30:22.562Z,24.20
2023-01-26T16:32:51.291Z,22.42
2023-01-26T16:35:20.831Z,21.50
2023-01-26T16:37:48.567Z,23.13
2023-01-26T16:40:19.274Z,23.75
2023-01-26T16:42:49.696Z,22.55
2023-01-26T16:45:19.894Z,23.50
2023-01-26T16:47:52.162Z,25.70
2023-01-26T16:50:19.878Z,26.75
2023-01-26T16:52:48.018Z,23.08
2023-01-26T16:55:17.169Z,24.70
2023-01-26T16:57:46.624Z,25.92
2023-01-26T17:00:17.081Z,24.65
2023-01-26T17:02:47.627Z,22.95
2023-01-26T17:05:16.814Z,26.75
2023-01-26T17:07:44.429Z,27.33
2023-01-26T17:10:13.473Z,27.48
2023-01-26T17:12:42.740Z,37.83
2023-01-26T17:15:12.911Z,38.42
2023-01-26T17:17:42.295Z,31.75
2023-01-26T17:20:19.337Z,29.52
2023-01-26T17:22:47.463Z,23.55
2023-01-26T17:25:16.924Z,25.60
2023-01-26T17:27:49.639Z,27.63
2023-01-26T17:30:18.528Z,25.92
2023-01-26T17:32:46.310Z,26.60
2023-01-26T17:35:14.321Z,25.88
2023-01-26T17:37:42.186Z,28.20
2023-01-26T17:40:11.276Z,24.13
2023-01-26T17:42:38.985Z,23.10
2023-01-26T17:45:09.940Z,25.50
2023-01-26T17:47:38.605Z,23.08
2023-01-26T17:50:07.085Z,31.33
2023-01-26T17:52:36.427Z,28.15
2023-01-26T17:55:06.288Z,25.85
2023-01-26T17:57:34.575Z,28.80
2023-01-26T18:00:02.240Z,24.63
2023-01-26T18:02:31.357Z,27.90
2023-01-26T18:04:58.985Z,25.25
2023-01-26T18:07:26.715Z,25.45
2023-01-26T18:09:54.258Z,27.25
2023-01-26T18:12:21.804Z,27.90
2023-01-26T18:14:49.552Z,30.67
2023-01-26T18:17:17.301Z,27.95
2023-01-26T18:19:46.449Z,29.17
2023-01-26T18:22:14.003Z,29.05
2023-01-26T18:24:41.613Z,27.92
2023-01-26T18:27:09.169Z,30.27
2023-01-26T18:29:36.777Z,29.43
2023-01-26T18:32:04.601Z,35.17
2023-01-26T18:34:32.224Z,27.08
2023-01-26T18:37:01.170Z,29.23
2023-01-26T18:39:28.860Z,26.65
2023-01-26T18:41:56.558Z,28.02
2023-01-26T18:44:27.163Z,30.08
2023-01-26T18:46:55.032Z,31.08
2023-01-26T18:49:22.670Z,36.40
2023-01-26T18:51:52.202Z,39.50
2023-01-26T18:54:21.244Z,30.67
2023-01-26T18:56:48.833Z,28.27
2023-01-26T18:59:17.761Z,30.80
2023-01-26T19:01:45.364Z,33.05
2023-01-26T19:04:12.991Z,31.92
2023-01-26T19:06:40.683Z,38.05
2023-01-26T19:09:09.654Z,35.83
2023-01-26T19:11:39.909Z,31.45
2023-01-26T19:14:08.498Z,30.02
2023-01-26T19:16:36.388Z,32.45
2023-01-26T19:19:04.985Z,41.50
2023-01-26T19:21:33.998Z,37.13
2023-01-26T19:24:05.905Z,55.88
2023-01-26T19:26:34.571Z,39.30
2023-01-26T19:29:04.063Z,47.95
2023-01-26T19:31:32.132Z,53.97
2023-01-26T19:34:01.302Z,48.57
2023-01-26T19:36:31.075Z,49.97
2023-01-26T19:38:58.759Z,42.28
2023-01-26T19:41:26.950Z,46.20
2023-01-26T19:43:54.719Z,42.78
2023-01-26T19:46:23.788Z,39.80
2023-01-26T19:48:51.733Z,40.20
2023-01-26T19:51:21.457Z,39.17
2023-01-26T19:53:50.956Z,40.97
2023-01-26T19:56:21.020Z,35.83
2023-01-26T19:58:51.188Z,37.47
2023-01-26T20:01:19.961Z,58.25
2023-01-26T20:03:52.552Z,74.65
2023-01-26T20:06:21.932Z,49.78
2023-01-26T20:08:50.322Z,53.40
2023-01-26T20:11:19.797Z,37.50
2023-01-26T20:13:47.446Z,39.22
2023-01-26T20:16:15.186Z,33.90
2023-01-26T20:18:42.903Z,39.10
2023-01-26T20:21:12.117Z,37.80
2023-01-26T20:23:53.402Z,36.97
2023-01-26T20:26:21.945Z,38.78
2023-01-26T20:28:49.507Z,36.17
2023-01-26T20:31:20.445Z,36.67
2023-01-26T20:33:49.594Z,33.95
2023-01-26T20:36:22.481Z,36.08
2023-01-26T20:38:50.745Z,34.60
2023-01-26T20:41:21.541Z,38.80
2023-01-26T20:43:59.208Z,43.05
2023-01-26T20:46:29.432Z,42.55
2023-01-26T20:48:57.690Z,38.10
2023-01-26T20:51:30.341Z,34.70
2023-01-26T20:53:58.606Z,34.50
2023-01-26T20:56:27.539Z,39.03
2023-01-26T20:58:56.567Z,40.60
2023-01-26T21:01:24.895Z,42.35
2023-01-26T21:03:53.089Z,47.25
2023-01-26T21:06:22.603Z,47.30
2023-01-26T21:08:54.436Z,48.50
2023-01-26T21:11:23.755Z,55.08
2023-01-26T21:13:51.833Z,53.03
2023-01-26T21:16:20.089Z,49.63
2023-01-26T21:18:47.804Z,49.58
2023-01-26T21:21:17.766Z,48.47
2023-01-26T21:23:46.495Z,46.65
2023-01-26T21:26:17.444Z,43.17
2023-01-26T21:28:45.314Z,43.17
2023-01-26T21:31:14.704Z,43.10
2023-01-26T21:33:43.775Z,40.97
2023-01-26T21:36:13.516Z,41.38
2023-01-26T21:38:43.634Z,36.30
2023-01-26T21:41:36.139Z,38.53
2023-01-26T21:44:06.936Z,40.90
2023-01-26T21:46:35.362Z,40.33
2023-01-26T21:49:03.198Z,73.78
2023-01-26T21:51:48.823Z,54.78
2023-01-26T21:54:17.164Z,38.55
2023-01-26T21:56:45.338Z,36.20
2023-01-26T21:59:16.282Z,35.72
2023-01-26T22:01:45.473Z,35.50
2023-01-26T22:04:15.283Z,31.55
2023-01-26T22:06:43.205Z,37.40
2023-01-26T22:09:12.616Z,35.58
2023-01-26T22:11:40.319Z,39.92
2023-01-26T22:14:08.135Z,40.42
2023-01-26T22:16:37.302Z,40.13
2023-01-26T22:19:05.592Z,37.38
2023-01-26T22:21:33.453Z,40.08
2023-01-26T22:24:01.106Z,50.25
2023-01-26T22:26:28.748Z,43.78
2023-01-26T22:28:58.224Z,44.58
2023-01-26T22:31:27.407Z,41.58
2023-01-26T22:33:58.927Z,40.00
2023-01-26T22:36:27.044Z,42.70
2023-01-26T22:38:54.624Z,43.00
2023-01-26T22:41:23.943Z,41.08
2023-01-26T22:43:54.182Z,41.58
2023-01-26T22:46:23.381Z,40.70
2023-01-26T22:48:51.711Z,39.42
2023-01-26T22:51:22.647Z,44.85
2023-01-26T22:53:51.517Z,40.15
2023-01-26T22:56:20.059Z,42.97
2023-01-26T22:58:57.690Z,43.83
2023-01-26T23:01:27.158Z,46.72
2023-01-26T23:03:56.156Z,45.22
2023-01-26T23:06:25.613Z,43.97
2023-01-26T23:08:53.667Z,46.05
2023-01-26T23:11:23.638Z,49.08
2023-01-26T23:13:52.566Z,48.25
2023-01-26T23:16:21.287Z,47.38
2023-01-26T23:18:48.976Z,48.33
2023-01-26T23:21:16.633Z,46.88
2023-01-26T23:23:45.564Z,53.23
2023-01-26T23:26:13.444Z,47.75
2023-01-26T23:28:43.111Z,49.67
2023-01-26T23:31:12.529Z,51.80
2023-01-26T23:33:40.798Z,49.25
2023-01-26T23:36:10.728Z,51.23
2023-01-26T23:38:38.603Z,53.72
2023-01-26T23:41:08.500Z,49.25
2023-01-26T23:43:36.548Z,48.30
2023-01-26T23:46:04.810Z,46.50
2023-01-26T23:48:32.397Z,49.38
2023-01-26T23:51:03.945Z,50.55
2023-01-26T23:53:32.114Z,47.03
2023-01-26T23:56:00.880Z,45.38
2023-01-26T23:58:29.814Z,40.13
